Dades meteomassalio
Diari Summary for Agost 6, 2017 Units:  Metric    English   Both
« Previous Day
Next Day »
Diari Semanal Mensual Anual Personalitzat
  Maxima: Minima: Mijana:
Temperatura: 32.7 °C 19.2 °C 24.7 °C
Rosada: 20.4 °C 13.4 °C 15.7 °C
Humitat: 71 % 38 % 58 %
Velocitat del vent: 31.5 km/h 0.0 km/h 12 km/h
Racha vent: 31.5 km/h - -
Vent:- - SSW
Pressio: 1018.8 hPa 1014.1 hPa -
Pluja: 0.0 mm    
Historical Graphs
 
 
Tabular Data for Agost 6, 2017
Time Temperature Dew Point Pressure Wind Wind Speed Wind Gust Humidity Rainfall Rate (Hourly) solar Conditions
00:04 24.3 °C 15.3 °C 1015.1 hPa WSW 5.6 km/h 5.6 km/h 57 % 0.0 mm 0.0 W/m2 CLR
00:09 24.2 °C 15.2 °C 1015.5 hPa WNW 18.5 km/h 18.5 km/h 57 % 0.0 mm 0.0 W/m2 CLR
00:14 24.1 °C 15.1 °C 1015.5 hPa WSW 13.0 km/h 13.0 km/h 57 % 0.0 mm 0.0 W/m2 CLR
00:19 24.0 °C 14.9 °C 1015.5 hPa West 20.4 km/h 20.4 km/h 57 % 0.0 mm 0.0 W/m2 CLR
00:24 23.8 °C 14.8 °C 1015.5 hPa WNW 31.5 km/h 31.5 km/h 57 % 0.0 mm 0.0 W/m2 CLR
00:29 23.7 °C 14.9 °C 1015.5 hPa West 5.6 km/h 5.6 km/h 58 % 0.0 mm 0.0 W/m2 CLR
00:34 23.6 °C 14.9 °C 1015.5 hPa West 18.5 km/h 18.5 km/h 58 % 0.0 mm 0.0 W/m2 CLR
00:39 23.6 °C 14.8 °C 1015.5 hPa WSW 16.7 km/h 16.7 km/h 58 % 0.0 mm 0.0 W/m2 CLR
00:44 23.4 °C 14.9 °C 1015.5 hPa WSW 22.2 km/h 22.2 km/h 59 % 0.0 mm 0.0 W/m2 CLR
00:49 23.3 °C 14.8 °C 1015.5 hPa WNW 9.7 km/h 9.7 km/h 59 % 0.0 mm 0.0 W/m2 CLR
00:54 23.1 °C 14.7 °C 1015.5 hPa WNW 9.3 km/h 9.3 km/h 59 % 0.0 mm 0.0 W/m2 CLR
00:59 23.1 °C 14.6 °C 1015.5 hPa West 11.1 km/h 11.1 km/h 59 % 0.0 mm 0.0 W/m2 CLR
01:04 22.9 °C 14.7 °C 1015.8 hPa WNW 18.5 km/h 18.5 km/h 60 % 0.0 mm 0.0 W/m2 CLR
01:09 22.8 °C 14.6 °C 1015.8 hPa WNW 24.1 km/h 24.1 km/h 60 % 0.0 mm 0.0 W/m2 CLR
01:14 22.7 °C 14.5 °C 1015.8 hPa West 20.9 km/h 20.9 km/h 60 % 0.0 mm 0.0 W/m2 CLR
01:24 22.4 °C 14.3 °C 1015.8 hPa West 24.1 km/h 24.1 km/h 60 % 0.0 mm 0.0 W/m2 CLR
01:29 22.4 °C 14.5 °C 1015.8 hPa West 18.5 km/h 18.5 km/h 61 % 0.0 mm 0.0 W/m2 CLR
01:34 22.3 °C 14.4 °C 1015.8 hPa West 24.1 km/h 24.1 km/h 61 % 0.0 mm 0.0 W/m2 CLR
01:39 22.3 °C 14.4 °C 1015.8 hPa WSW 20.4 km/h 20.4 km/h 61 % 0.0 mm 0.0 W/m2 CLR
01:44 22.3 °C 14.4 °C 1015.8 hPa West 18.5 km/h 18.5 km/h 61 % 0.0 mm 0.0 W/m2 CLR
01:49 22.2 °C 14.3 °C 1015.8 hPa WNW 18.5 km/h 18.5 km/h 61 % 0.0 mm 0.0 W/m2 CLR
01:54 22.2 °C 14.3 °C 1015.8 hPa WNW 11.1 km/h 11.1 km/h 61 % 0.0 mm 0.0 W/m2 CLR
01:59 22.1 °C 14.5 °C 1015.8 hPa WNW 18.5 km/h 18.5 km/h 62 % 0.0 mm 0.0 W/m2 CLR
02:04 22.1 °C 14.4 °C 1015.8 hPa Calm     62 % 0.0 mm 0.0 W/m2 CLR
02:09 22.0 °C 14.4 °C 1015.8 hPa West 5.6 km/h 5.6 km/h 62 % 0.0 mm 0.0 W/m2 CLR
02:19 21.9 °C 14.3 °C 1015.5 hPa Calm     62 % 0.0 mm 0.0 W/m2 CLR
02:24 21.8 °C 14.5 °C 1015.5 hPa NW 5.6 km/h   63 % 0.0 mm 0.0 W/m2 CLR
02:29 21.7 °C 14.4 °C 1015.5 hPa Calm     63 % 0.0 mm 0.0 W/m2 CLR
02:34 21.7 °C 14.4 °C 1015.8 hPa WNW 5.6 km/h   63 % 0.0 mm 0.0 W/m2 CLR
02:39 21.6 °C 14.3 °C 1015.8 hPa West 11.1 km/h 11.1 km/h 63 % 0.0 mm 0.0 W/m2 CLR
02:44 21.5 °C 14.2 °C 1015.8 hPa WNW 18.5 km/h 18.5 km/h 63 % 0.0 mm 0.0 W/m2 CLR
02:49 21.4 °C 14.3 °C 1015.8 hPa West 16.7 km/h 16.7 km/h 64 % 0.0 mm 0.0 W/m2 CLR
02:54 21.3 °C 14.2 °C 1015.8 hPa NW 16.1 km/h 16.1 km/h 64 % 0.0 mm 0.0 W/m2 CLR
02:59 21.2 °C 14.1 °C 1015.8 hPa WNW 14.8 km/h 14.8 km/h 64 % 0.0 mm 0.0 W/m2 CLR
03:04 21.1 °C 14.3 °C 1015.8 hPa Calm   1.0 km/h 65 % 0.0 mm 0.0 W/m2 CLR
03:09 21.1 °C 14.2 °C 1015.8 hPa WNW 13.0 km/h 13.0 km/h 65 % 0.0 mm 0.0 W/m2 CLR
03:14 21.0 °C 14.2 °C 1015.8 hPa NW 13.0 km/h 13.0 km/h 65 % 0.0 mm 0.0 W/m2 CLR
03:19 20.9 °C 14.1 °C 1015.8 hPa WNW 3.2 km/h 3.2 km/h 65 % 0.0 mm 0.0 W/m2 CLR
03:29 20.8 °C 13.9 °C 1015.8 hPa WNW 5.6 km/h   65 % 0.0 mm 0.0 W/m2 CLR
03:34 20.7 °C 14.1 °C 1015.8 hPa West 5.6 km/h 5.6 km/h 66 % 0.0 mm 0.0 W/m2 CLR
03:43 20.6 °C 14.0 °C 1015.8 hPa West 9.3 km/h 9.3 km/h 66 % 0.0 mm 0.0 W/m2 CLR
03:48 20.4 °C 13.9 °C 1015.8 hPa West 9.3 km/h 9.3 km/h 66 % 0.0 mm 0.0 W/m2 CLR
03:53 20.4 °C 13.8 °C 1015.8 hPa West 16.7 km/h 16.7 km/h 66 % 0.0 mm 0.0 W/m2 CLR
03:58 20.3 °C 13.8 °C 1015.8 hPa West 9.3 km/h 9.3 km/h 66 % 0.0 mm 0.0 W/m2 CLR
04:03 20.3 °C 13.7 °C 1016.1 hPa West 9.3 km/h 9.3 km/h 66 % 0.0 mm 0.0 W/m2 CLR
04:08 20.3 °C 13.9 °C 1015.8 hPa WNW 13.0 km/h 13.0 km/h 67 % 0.0 mm 0.0 W/m2 CLR
04:13 20.2 °C 13.8 °C 1015.8 hPa West 11.1 km/h 11.1 km/h 67 % 0.0 mm 0.0 W/m2 CLR
04:18 20.2 °C 13.8 °C 1015.8 hPa West 9.3 km/h 9.3 km/h 67 % 0.0 mm 0.0 W/m2 CLR
04:23 20.1 °C 13.8 °C 1016.1 hPa WNW 14.8 km/h 14.8 km/h 67 % 0.0 mm 0.0 W/m2 CLR
04:28 20.1 °C 13.7 °C 1016.1 hPa WNW 14.5 km/h 14.5 km/h 67 % 0.0 mm 0.0 W/m2 CLR
04:38 19.9 °C 13.6 °C 1016.1 hPa WNW 9.7 km/h 9.7 km/h 67 % 0.0 mm 0.0 W/m2 CLR
04:43 19.9 °C 13.6 °C 1016.1 hPa WNW 8.0 km/h 8.0 km/h 67 % 0.0 mm 0.0 W/m2 CLR
04:48 19.8 °C 13.8 °C 1016.1 hPa WNW 17.7 km/h 17.7 km/h 68 % 0.0 mm 0.0 W/m2 CLR
04:53 19.8 °C 13.7 °C 1016.1 hPa WNW 16.7 km/h 16.7 km/h 68 % 0.0 mm 0.0 W/m2 CLR
04:58 19.7 °C 13.7 °C 1016.1 hPa West 13.0 km/h 13.0 km/h 68 % 0.0 mm 0.0 W/m2 CLR
05:03 19.7 °C 13.8 °C 1016.5 hPa West 5.6 km/h 5.6 km/h 69 % 0.0 mm 0.0 W/m2 CLR
05:08 19.6 °C 13.8 °C 1016.1 hPa Calm     69 % 0.0 mm 0.0 W/m2 CLR
05:13 19.6 °C 13.8 °C 1016.5 hPa WSW 5.6 km/h   69 % 0.0 mm 0.0 W/m2 CLR
05:18 19.6 °C 13.7 °C 1016.5 hPa WSW 5.6 km/h 5.6 km/h 69 % 0.0 mm 0.0 W/m2 CLR
05:23 19.6 °C 13.7 °C 1016.5 hPa WNW 14.8 km/h 14.8 km/h 69 % 0.0 mm 0.0 W/m2 CLR
05:28 19.5 °C 13.7 °C 1016.5 hPa West 7.4 km/h 7.4 km/h 69 % 0.0 mm 0.0 W/m2 CLR
05:33 19.4 °C 13.6 °C 1016.5 hPa West 11.1 km/h 11.1 km/h 69 % 0.0 mm 0.0 W/m2 CLR
05:38 19.4 °C 13.6 °C 1016.5 hPa WSW 9.3 km/h 9.3 km/h 69 % 0.0 mm 0.0 W/m2 CLR
05:43 19.4 °C 13.6 °C 1016.5 hPa SW 9.3 km/h 9.3 km/h 69 % 0.0 mm 0.0 W/m2 CLR
05:48 19.4 °C 13.6 °C 1016.5 hPa WSW 5.6 km/h 5.6 km/h 69 % 0.0 mm 0.0 W/m2 CLR
05:53 19.4 °C 13.6 °C 1016.5 hPa WSW 4.8 km/h 4.8 km/h 69 % 0.0 mm 0.0 W/m2 CLR
05:58 19.3 °C 13.5 °C 1016.5 hPa Calm     69 % 0.0 mm 0.0 W/m2 CLR
06:03 19.3 °C 13.7 °C 1016.5 hPa WSW 5.6 km/h   70 % 0.0 mm 0.0 W/m2 CLR
06:08 19.3 °C 13.7 °C 1016.8 hPa Calm     70 % 0.0 mm 0.0 W/m2 CLR
06:13 19.3 °C 13.7 °C 1016.8 hPa Calm     70 % 0.0 mm 0.0 W/m2 CLR
06:18 19.2 °C 13.6 °C 1016.8 hPa West 7.4 km/h 7.4 km/h 70 % 0.0 mm 0.0 W/m2 CLR
06:23 19.2 °C 13.6 °C 1016.8 hPa West 5.6 km/h 5.6 km/h 70 % 0.0 mm 0.0 W/m2 CLR
06:28 19.3 °C 13.7 °C 1016.8 hPa West 8.0 km/h 8.0 km/h 70 % 0.0 mm 0.0 W/m2 CLR
06:33 19.3 °C 13.7 °C 1016.8 hPa WNW 11.3 km/h 11.3 km/h 70 % 0.0 mm 0.0 W/m2 CLR
06:38 19.3 °C 13.7 °C 1017.2 hPa WNW 13.0 km/h 13.0 km/h 70 % 0.0 mm 0.0 W/m2 CLR
06:43 19.3 °C 13.7 °C 1017.2 hPa West 4.8 km/h 4.8 km/h 70 % 0.0 mm 0.0 W/m2 CLR
06:48 19.3 °C 13.7 °C 1017.2 hPa West 7.4 km/h 7.4 km/h 70 % 0.0 mm 0.0 W/m2 CLR
06:53 19.3 °C 13.7 °C 1017.2 hPa West 9.7 km/h 9.7 km/h 70 % 0.0 mm 0.0 W/m2 CLR
06:58 19.3 °C 13.7 °C 1017.2 hPa WSW 18.5 km/h 18.5 km/h 70 % 0.0 mm 0.0 W/m2 CLR
07:03 19.3 °C 13.7 °C 1017.5 hPa West 9.3 km/h 9.3 km/h 70 % 0.0 mm 0.0 W/m2 OVC
07:08 19.2 °C 13.6 °C 1017.5 hPa West 9.3 km/h 9.3 km/h 70 % 0.0 mm 5.0 W/m2 OVC
07:13 19.2 °C 13.6 °C 1017.5 hPa West 9.7 km/h 9.7 km/h 70 % 0.0 mm 7.0 W/m2 BKN
07:18 19.2 °C 13.6 °C 1017.5 hPa WSW 11.3 km/h 11.3 km/h 70 % 0.0 mm 12.0 W/m2 BKN
07:23 19.2 °C 13.8 °C 1017.5 hPa WNW 24.1 km/h 24.1 km/h 71 % 0.0 mm 18.0 W/m2 BKN
07:28 19.2 °C 13.8 °C 1017.5 hPa WNW 16.7 km/h 16.7 km/h 71 % 0.0 mm 21.0 W/m2 BKN
07:33 19.2 °C 13.8 °C 1017.5 hPa WSW 14.5 km/h 14.5 km/h 71 % 0.0 mm 32.0 W/m2 BKN
07:38 19.2 °C 13.8 °C 1017.5 hPa West 16.7 km/h 16.7 km/h 71 % 0.0 mm 44.0 W/m2 BKN
07:43 19.2 °C 13.8 °C 1017.8 hPa West 18.5 km/h 18.5 km/h 71 % 0.0 mm 53.0 W/m2 SCT
07:48 19.3 °C 13.9 °C 1017.8 hPa WNW 7.4 km/h 7.4 km/h 71 % 0.0 mm 53.0 W/m2 SCT
07:53 19.3 °C 13.7 °C 1017.8 hPa West 9.3 km/h 9.3 km/h 70 % 0.0 mm 72.0 W/m2 FEW
07:58 19.4 °C 13.8 °C 1017.8 hPa West 16.7 km/h 16.7 km/h 70 % 0.0 mm 83.0 W/m2 FEW
08:03 19.4 °C 13.8 °C 1017.8 hPa West 11.1 km/h 11.1 km/h 70 % 0.0 mm 90.0 W/m2 FEW
08:08 19.4 °C 13.8 °C 1017.8 hPa WNW 13.0 km/h 13.0 km/h 70 % 0.0 mm 79.0 W/m2 FEW
08:13 19.4 °C 13.6 °C 1018.2 hPa West 24.1 km/h 24.1 km/h 69 % 0.0 mm 77.0 W/m2 FEW
08:18 19.3 °C 13.5 °C 1018.2 hPa WNW 22.2 km/h 22.2 km/h 69 % 0.0 mm 44.0 W/m2 FEW
08:23 19.3 °C 13.7 °C 1018.2 hPa WNW 14.8 km/h 14.8 km/h 70 % 0.0 mm 69.0 W/m2 FEW
08:28 19.3 °C 13.7 °C 1018.2 hPa West 16.7 km/h 16.7 km/h 70 % 0.0 mm 134.0 W/m2 FEW
08:33 19.4 °C 13.8 °C 1018.2 hPa WNW 24.1 km/h 24.1 km/h 70 % 0.0 mm 62.0 W/m2 FEW
08:38 19.4 °C 13.6 °C 1018.2 hPa West 18.5 km/h 18.5 km/h 69 % 0.0 mm 62.0 W/m2 FEW
08:43 19.4 °C 13.6 °C 1018.5 hPa NW 16.7 km/h 16.7 km/h 69 % 0.0 mm 60.0 W/m2 SCT
08:48 19.4 °C 13.6 °C 1018.5 hPa West 18.5 km/h 18.5 km/h 69 % 0.0 mm 65.0 W/m2 SCT
08:53 19.5 °C 13.7 °C 1018.5 hPa WNW 18.5 km/h 18.5 km/h 69 % 0.0 mm 123.0 W/m2 FEW
08:58 19.6 °C 13.5 °C 1018.5 hPa West 27.8 km/h 27.8 km/h 68 % 0.0 mm 153.0 W/m2 CLR
09:03 19.6 °C 13.6 °C 1018.5 hPa West 18.5 km/h 18.5 km/h 68 % 0.0 mm 155.0 W/m2 CLR
09:08 19.8 °C 13.7 °C 1018.5 hPa West 13.0 km/h 13.0 km/h 68 % 0.0 mm 185.0 W/m2 CLR
09:13 19.9 °C 13.6 °C 1018.5 hPa WNW 20.9 km/h 20.9 km/h 67 % 0.0 mm 285.0 W/m2 CLR
09:18 20.0 °C 13.7 °C 1018.5 hPa West 18.5 km/h 18.5 km/h 67 % 0.0 mm 199.0 W/m2 CLR
09:23 20.0 °C 13.7 °C 1018.5 hPa WNW 16.7 km/h 16.7 km/h 67 % 0.0 mm 216.0 W/m2 CLR
09:28 20.2 °C 13.9 °C 1018.5 hPa WNW 18.5 km/h 18.5 km/h 67 % 0.0 mm 213.0 W/m2 CLR
09:33 20.3 °C 13.6 °C 1018.5 hPa WNW 18.5 km/h 18.5 km/h 65 % 0.0 mm 223.0 W/m2 CLR
09:38 20.4 °C 13.6 °C 1018.8 hPa West 20.4 km/h 20.4 km/h 65 % 0.0 mm 236.0 W/m2 CLR
09:43 20.4 °C 13.9 °C 1018.8 hPa West 14.8 km/h 14.8 km/h 66 % 0.0 mm 225.0 W/m2 CLR
09:48 20.6 °C 13.7 °C 1018.8 hPa West 22.2 km/h 22.2 km/h 65 % 0.0 mm 232.0 W/m2 CLR
09:53 20.6 °C 13.7 °C 1018.8 hPa WNW 20.4 km/h 20.4 km/h 65 % 0.0 mm 237.0 W/m2 CLR
09:58 20.6 °C 13.8 °C 1018.8 hPa West 9.3 km/h 9.3 km/h 65 % 0.0 mm 257.0 W/m2 CLR
10:03 20.8 °C 13.7 °C 1018.8 hPa NNW 12.9 km/h 12.9 km/h 64 % 0.0 mm 251.0 W/m2 CLR
10:08 21.1 °C 13.7 °C 1018.8 hPa WNW 16.1 km/h 16.1 km/h 63 % 0.0 mm 388.0 W/m2 CLR
10:13 21.3 °C 13.7 °C 1018.8 hPa West 5.6 km/h   62 % 0.0 mm 309.0 W/m2 CLR
10:18 21.5 °C 13.9 °C 1018.8 hPa WNW 12.9 km/h 12.9 km/h 62 % 0.0 mm 253.0 W/m2 CLR
10:23 21.4 °C 13.6 °C 1018.8 hPa Calm     61 % 0.0 mm 272.0 W/m2 CLR
10:28 21.4 °C 13.6 °C 1018.8 hPa NW 14.8 km/h 14.8 km/h 61 % 0.0 mm 308.0 W/m2 CLR
10:33 21.4 °C 13.6 °C 1018.8 hPa WSW 13.0 km/h 13.0 km/h 61 % 0.0 mm 325.0 W/m2 CLR
10:38 21.4 °C 13.8 °C 1018.8 hPa WSW 7.4 km/h 7.4 km/h 62 % 0.0 mm 332.0 W/m2 CLR
10:43 21.7 °C 13.8 °C 1018.8 hPa Calm     61 % 0.0 mm 322.0 W/m2 CLR
10:48 22.0 °C 13.9 °C 1018.8 hPa West 9.3 km/h 9.3 km/h 60 % 0.0 mm 359.0 W/m2 CLR
10:53 22.2 °C 13.8 °C 1018.8 hPa WNW 11.3 km/h 11.3 km/h 59 % 0.0 mm 350.0 W/m2 CLR
10:58 22.3 °C 13.6 °C 1018.8 hPa WSW 13.0 km/h   58 % 0.0 mm 313.0 W/m2 CLR
11:03 22.3 °C 13.7 °C 1018.8 hPa West 14.8 km/h 14.8 km/h 58 % 0.0 mm 425.0 W/m2 CLR
11:08 22.5 °C 13.6 °C 1018.8 hPa NW 13.0 km/h 13.0 km/h 57 % 0.0 mm 543.0 W/m2 CLR
11:13 22.6 °C 13.4 °C 1018.8 hPa WNW 7.4 km/h 7.4 km/h 56 % 0.0 mm 459.0 W/m2 CLR
11:23 22.9 °C 13.7 °C 1018.8 hPa NW 13.0 km/h 13.0 km/h 56 % 0.0 mm 745.0 W/m2 CLR
11:28 23.0 °C 13.7 °C 1018.8 hPa SW 9.7 km/h 10.5 km/h 56 % 0.0 mm 348.0 W/m2 CLR
11:33 23.2 °C 13.9 °C 1018.8 hPa WNW 16.7 km/h 16.7 km/h 56 % 0.0 mm 833.0 W/m2 CLR
11:38 23.3 °C 13.8 °C 1018.8 hPa WSW 14.8 km/h 14.8 km/h 55 % 0.0 mm 642.0 W/m2 CLR
11:43 23.3 °C 13.7 °C 1018.8 hPa WSW 16.7 km/h 16.7 km/h 55 % 0.0 mm 802.0 W/m2 CLR
11:48 23.4 °C 13.8 °C 1018.8 hPa WNW 18.5 km/h 18.5 km/h 55 % 0.0 mm 830.0 W/m2 CLR
11:53 23.7 °C 13.8 °C 1018.5 hPa West 11.1 km/h 11.1 km/h 54 % 0.0 mm 772.0 W/m2 CLR
11:58 24.0 °C 14.1 °C 1018.5 hPa NNW 14.8 km/h 14.8 km/h 54 % 0.0 mm 745.0 W/m2 CLR
12:03 24.3 °C 13.8 °C 1018.5 hPa West 16.7 km/h 16.7 km/h 52 % 0.0 mm 758.0 W/m2 CLR
12:08 24.2 °C 13.7 °C 1018.5 hPa WNW 13.0 km/h 13.0 km/h 52 % 0.0 mm 768.0 W/m2 CLR
12:13 24.2 °C 13.4 °C 1018.5 hPa WNW 22.2 km/h 22.2 km/h 51 % 0.0 mm 770.0 W/m2 CLR
12:18 24.2 °C 13.4 °C 1018.5 hPa West 18.5 km/h 18.5 km/h 51 % 0.0 mm 779.0 W/m2 CLR
12:23 24.2 °C 13.4 °C 1018.5 hPa West 16.7 km/h 16.7 km/h 51 % 0.0 mm 788.0 W/m2 CLR
12:28 24.3 °C 13.5 °C 1018.5 hPa NW 13.0 km/h 13.0 km/h 51 % 0.0 mm 782.0 W/m2 CLR
12:33 24.7 °C 13.9 °C 1018.2 hPa WNW 3.7 km/h 3.7 km/h 51 % 0.0 mm 793.0 W/m2 CLR
12:38 25.1 °C 13.9 °C 1018.2 hPa NNW 11.1 km/h 11.1 km/h 50 % 0.0 mm 807.0 W/m2 CLR
12:43 25.5 °C 14.3 °C 1018.2 hPa NNW 1.9 km/h 1.9 km/h 50 % 0.0 mm 809.0 W/m2 CLR
12:48 25.9 °C 14.1 °C 1018.2 hPa NW 13.0 km/h 13.0 km/h 48 % 0.0 mm 821.0 W/m2 CLR
12:53 26.2 °C 14.3 °C 1018.2 hPa North 1.9 km/h   48 % 0.0 mm 821.0 W/m2 CLR
12:58 26.4 °C 14.5 °C 1017.8 hPa Calm     48 % 0.0 mm 826.0 W/m2 CLR
13:03 26.6 °C 14.3 °C 1017.8 hPa Calm     47 % 0.0 mm 835.0 W/m2 CLR
13:08 26.6 °C 14.0 °C 1017.8 hPa North 7.4 km/h 7.4 km/h 46 % 0.0 mm 849.0 W/m2 CLR
13:13 26.6 °C 14.7 °C 1017.8 hPa West 7.4 km/h 7.4 km/h 48 % 0.0 mm 851.0 W/m2 CLR
13:18 26.4 °C 14.6 °C 1017.5 hPa WNW 7.4 km/h   48 % 0.0 mm 846.0 W/m2 CLR
13:23 26.8 °C 14.9 °C 1017.8 hPa West 6.4 km/h 6.4 km/h 48 % 0.0 mm 856.0 W/m2 CLR
13:28 26.9 °C 14.6 °C 1017.5 hPa West 9.3 km/h 9.3 km/h 47 % 0.0 mm 861.0 W/m2 CLR
13:33 26.8 °C 14.5 °C 1017.5 hPa SSW 1.9 km/h   47 % 0.0 mm 868.0 W/m2 CLR
13:38 27.1 °C 14.2 °C 1017.5 hPa Calm     45 % 0.0 mm 865.0 W/m2 CLR
13:43 27.3 °C 14.3 °C 1017.5 hPa North 13.0 km/h 13.0 km/h 45 % 0.0 mm 860.0 W/m2 CLR
13:48 27.7 °C 15.0 °C 1017.2 hPa Calm     46 % 0.0 mm 879.0 W/m2 CLR
13:53 28.1 °C 14.7 °C 1017.2 hPa WNW 5.6 km/h 5.6 km/h 44 % 0.0 mm 882.0 W/m2 CLR
13:58 28.3 °C 14.8 °C 1017.2 hPa Calm     44 % 0.0 mm 877.0 W/m2 CLR
14:03 28.6 °C 14.8 °C 1017.2 hPa Calm     43 % 0.0 mm 877.0 W/m2 CLR
14:08 28.6 °C 14.8 °C 1016.8 hPa NE 7.4 km/h 7.4 km/h 43 % 0.0 mm 879.0 W/m2 CLR
14:13 28.6 °C 14.8 °C 1016.8 hPa NNE 5.6 km/h   43 % 0.0 mm 888.0 W/m2 CLR
14:18 28.8 °C 14.6 °C 1016.8 hPa NNW 7.4 km/h 7.4 km/h 42 % 0.0 mm 886.0 W/m2 CLR
14:23 28.6 °C 14.4 °C 1016.8 hPa Calm     42 % 0.0 mm 888.0 W/m2 CLR
14:28 28.6 °C 14.8 °C 1016.8 hPa NE 6.4 km/h 6.4 km/h 43 % 0.0 mm 875.0 W/m2 CLR
14:33 28.8 °C 14.6 °C 1016.8 hPa Calm   1.9 km/h 42 % 0.0 mm 874.0 W/m2 CLR
14:38 28.9 °C 14.7 °C 1016.8 hPa North 1.9 km/h 1.9 km/h 42 % 0.0 mm 874.0 W/m2 CLR
14:43 28.7 °C 14.9 °C 1016.5 hPa NNW 5.6 km/h   43 % 0.0 mm 853.0 W/m2 CLR
14:48 28.8 °C 15.0 °C 1016.5 hPa Calm     43 % 0.0 mm 863.0 W/m2 CLR
14:53 29.1 °C 15.2 °C 1016.5 hPa Calm     43 % 0.0 mm 863.0 W/m2 CLR
14:58 29.7 °C 15.1 °C 1016.5 hPa East 6.4 km/h 6.4 km/h 41 % 0.0 mm 867.0 W/m2 CLR
15:03 29.5 °C 15.2 °C 1016.5 hPa Calm   0.8 km/h 42 % 0.0 mm 868.0 W/m2 CLR
15:08 29.7 °C 15.4 °C 1016.1 hPa ENE 5.6 km/h   42 % 0.0 mm 858.0 W/m2 CLR
15:13 30.0 °C 15.3 °C 1016.1 hPa Calm     41 % 0.0 mm 867.0 W/m2 CLR
15:18 30.0 °C 14.9 °C 1016.1 hPa ENE 13.0 km/h 13.0 km/h 40 % 0.0 mm 856.0 W/m2 CLR
15:23 29.9 °C 14.8 °C 1016.1 hPa NE 16.1 km/h 16.1 km/h 40 % 0.0 mm 842.0 W/m2 CLR
15:28 29.8 °C 14.7 °C 1016.1 hPa ENE 11.3 km/h 11.3 km/h 40 % 0.0 mm 812.0 W/m2 CLR
15:33 29.8 °C 15.2 °C 1016.1 hPa NE 5.6 km/h   41 % 0.0 mm 837.0 W/m2 CLR
15:38 30.2 °C 15.5 °C 1015.8 hPa NE 9.7 km/h 9.7 km/h 41 % 0.0 mm 803.0 W/m2 CLR
15:43 30.3 °C 15.2 °C 1015.8 hPa North 1.9 km/h   40 % 0.0 mm 819.0 W/m2 CLR
15:45 30.2 °C 15.1 °C 1015.8 hPa Calm     40 % 0.0 mm 823.0 W/m2 CLR
15:50 30.4 °C 15.3 °C 1015.8 hPa North 14.8 km/h 14.8 km/h 40 % 0.0 mm 809.0 W/m2 CLR
15:54 30.6 °C 15.4 °C 1015.8 hPa Calm     40 % 0.0 mm 803.0 W/m2 CLR
16:04 31.0 °C 15.4 °C 1015.5 hPa NE 9.3 km/h 9.3 km/h 39 % 0.0 mm 777.0 W/m2 CLR
16:09 31.2 °C 15.6 °C 1015.5 hPa NE 11.1 km/h 11.1 km/h 39 % 0.0 mm 772.0 W/m2 CLR
16:14 31.2 °C 15.6 °C 1015.5 hPa NE 1.6 km/h 1.6 km/h 39 % 0.0 mm 758.0 W/m2 CLR
16:19 31.4 °C 15.8 °C 1015.5 hPa Calm     39 % 0.0 mm 742.0 W/m2 CLR
16:24 31.5 °C 15.4 °C 1015.5 hPa East 11.1 km/h 11.1 km/h 38 % 0.0 mm 661.0 W/m2 CLR
16:29 31.0 °C 15.4 °C 1015.5 hPa NNE 14.8 km/h 14.8 km/h 39 % 0.0 mm 745.0 W/m2 CLR
16:34 31.1 °C 15.9 °C 1015.1 hPa ENE 9.7 km/h 9.7 km/h 40 % 0.0 mm 733.0 W/m2 CLR
16:39 31.5 °C 15.9 °C 1015.1 hPa NE 5.6 km/h 5.6 km/h 39 % 0.0 mm 724.0 W/m2 CLR
16:44 31.7 °C 16.0 °C 1015.1 hPa NE 13.0 km/h 13.0 km/h 39 % 0.0 mm 729.0 W/m2 CLR
16:49 31.7 °C 16.1 °C 1015.1 hPa ENE 13.0 km/h 13.0 km/h 39 % 0.0 mm 700.0 W/m2 CLR
16:54 31.7 °C 16.1 °C 1014.8 hPa NE 13.0 km/h 13.0 km/h 39 % 0.0 mm 693.0 W/m2 CLR
16:55 31.7 °C 16.1 °C 1014.8 hPa NE 13.0 km/h 13.0 km/h 39 % 0.0 mm 693.0 W/m2 CLR
17:00 32.0 °C 16.3 °C 1014.8 hPa ENE 18.5 km/h 18.5 km/h 39 % 0.0 mm 677.0 W/m2 CLR
17:05 31.9 °C 16.7 °C 1014.8 hPa ESE 20.4 km/h 20.4 km/h 40 % 0.0 mm 654.0 W/m2 CLR
17:10 31.7 °C 16.4 °C 1014.4 hPa NE 11.1 km/h 11.1 km/h 40 % 0.0 mm 659.0 W/m2 CLR
17:15 31.7 °C 16.8 °C 1014.4 hPa ENE 11.1 km/h 11.1 km/h 41 % 0.0 mm 647.0 W/m2 CLR
17:20 32.2 °C 17.6 °C 1014.4 hPa NNE 13.0 km/h 13.0 km/h 42 % 0.0 mm 650.0 W/m2 CLR
17:30 32.4 °C 17.9 °C 1014.4 hPa NNE 1.9 km/h   42 % 0.0 mm 610.0 W/m2 CLR
17:35 32.6 °C 18.1 °C 1014.4 hPa Calm     42 % 0.0 mm 657.0 W/m2 CLR
17:40 32.7 °C 18.4 °C 1014.4 hPa East 13.0 km/h 13.0 km/h 43 % 0.0 mm 443.0 W/m2 CLR
17:45 32.4 °C 18.9 °C 1014.4 hPa Calm     45 % 0.0 mm 513.0 W/m2 CLR
17:50 32.1 °C 19.7 °C 1014.1 hPa East 18.5 km/h 18.5 km/h 48 % 0.0 mm 197.0 W/m2 CLR
17:55 31.6 °C 18.9 °C 1014.4 hPa SE 14.8 km/h 14.8 km/h 47 % 0.0 mm 193.0 W/m2 CLR
18:00 31.3 °C 19.9 °C 1014.1 hPa SE 20.9 km/h 20.9 km/h 51 % 0.0 mm 160.0 W/m2 CLR
18:05 30.8 °C 19.8 °C 1014.1 hPa ESE 18.5 km/h 18.5 km/h 52 % 0.0 mm 146.0 W/m2 CLR
18:10 30.6 °C 20.2 °C 1014.1 hPa East 18.5 km/h 18.5 km/h 54 % 0.0 mm 374.0 W/m2 CLR
18:15 30.8 °C 20.4 °C 1014.1 hPa ESE 16.7 km/h 16.7 km/h 54 % 0.0 mm 490.0 W/m2 CLR
18:20 30.9 °C 20.2 °C 1014.1 hPa ESE 20.4 km/h 20.4 km/h 53 % 0.0 mm 432.0 W/m2 CLR
18:25 30.8 °C 20.2 °C 1014.1 hPa SSE 18.5 km/h 18.5 km/h 53 % 0.0 mm 455.0 W/m2 CLR
18:30 30.7 °C 20.1 °C 1014.1 hPa ESE 22.2 km/h 22.2 km/h 53 % 0.0 mm 443.0 W/m2 CLR
18:35 30.4 °C 20.1 °C 1014.1 hPa ESE 29.6 km/h 29.6 km/h 54 % 0.0 mm 292.0 W/m2 CLR
18:40 30.1 °C 20.3 °C 1014.1 hPa East 20.9 km/h 20.9 km/h 56 % 0.0 mm 97.0 W/m2 CLR
18:45 29.8 °C 20.1 °C 1014.1 hPa SE 29.6 km/h 29.6 km/h 56 % 0.0 mm 132.0 W/m2 CLR
18:50 29.6 °C 20.2 °C 1014.1 hPa SE 24.1 km/h 24.1 km/h 57 % 0.0 mm 162.0 W/m2 CLR
18:55 29.8 °C 20.1 °C 1014.1 hPa ESE 18.5 km/h 18.5 km/h 56 % 0.0 mm 381.0 W/m2 CLR
19:00 29.9 °C 19.9 °C 1014.1 hPa SSE 24.1 km/h 24.1 km/h 55 % 0.0 mm 350.0 W/m2 CLR
19:10 29.6 °C 19.6 °C 1014.1 hPa ESE 20.4 km/h 20.4 km/h 55 % 0.0 mm 278.0 W/m2 CLR
19:15 29.5 °C 19.5 °C 1014.1 hPa SE 25.9 km/h 25.9 km/h 55 % 0.0 mm 246.0 W/m2 CLR
19:20 29.4 °C 19.4 °C 1014.1 hPa East 24.1 km/h 24.1 km/h 55 % 0.0 mm 239.0 W/m2 CLR
19:25 29.4 °C 19.1 °C 1014.1 hPa ESE 22.2 km/h 22.2 km/h 54 % 0.0 mm 214.0 W/m2 CLR
19:30 29.2 °C 19.2 °C 1014.1 hPa SE 27.8 km/h 27.8 km/h 55 % 0.0 mm 213.0 W/m2 CLR
19:35 29.1 °C 19.1 °C 1014.1 hPa SE 22.2 km/h 22.2 km/h 55 % 0.0 mm 200.0 W/m2 CLR
19:40 29.1 °C 19.2 °C 1014.1 hPa SE 22.2 km/h 22.2 km/h 55 % 0.0 mm 178.0 W/m2 CLR
19:45 29.1 °C 19.2 °C 1014.1 hPa SSE 20.4 km/h 20.4 km/h 55 % 0.0 mm 163.0 W/m2 CLR
19:50 29.2 °C 19.2 °C 1014.1 hPa ESE 18.5 km/h 18.5 km/h 55 % 0.0 mm 149.0 W/m2 CLR
19:55 28.9 °C 19.0 °C 1014.1 hPa SE 27.8 km/h 27.8 km/h 55 % 0.0 mm 137.0 W/m2 CLR
20:00 28.8 °C 19.2 °C 1014.1 hPa SE 20.4 km/h 20.4 km/h 56 % 0.0 mm 116.0 W/m2 CLR
20:05 28.8 °C 19.1 °C 1014.1 hPa SE 25.9 km/h 25.9 km/h 56 % 0.0 mm 100.0 W/m2 CLR
20:10 28.7 °C 19.1 °C 1014.1 hPa ESE 18.5 km/h 18.5 km/h 56 % 0.0 mm 86.0 W/m2 CLR
20:15 28.8 °C 19.1 °C 1014.1 hPa ESE 18.5 km/h 18.5 km/h 56 % 0.0 mm 70.0 W/m2 FEW
20:20 28.7 °C 19.3 °C 1014.1 hPa SE 20.4 km/h 20.4 km/h 57 % 0.0 mm 56.0 W/m2 SCT
20:25 28.6 °C 19.2 °C 1014.1 hPa SSE 25.9 km/h 25.9 km/h 57 % 0.0 mm 46.0 W/m2 SCT
20:30 28.3 °C 19.0 °C 1014.1 hPa SE 20.4 km/h 20.4 km/h 57 % 0.0 mm 37.0 W/m2 BKN
20:35 28.2 °C 19.2 °C 1014.1 hPa ESE 22.2 km/h 22.2 km/h 58 % 0.0 mm 26.0 W/m2 BKN
20:40 28.1 °C 19.1 °C 1014.1 hPa SSE 16.7 km/h 16.7 km/h 58 % 0.0 mm 19.0 W/m2 BKN
20:45 28.0 °C 18.9 °C 1014.1 hPa South 16.7 km/h 16.7 km/h 58 % 0.0 mm 16.0 W/m2 BKN
20:50 27.9 °C 19.2 °C 1014.1 hPa SSE 13.0 km/h 13.0 km/h 59 % 0.0 mm 14.0 W/m2 BKN
20:55 27.8 °C 19.1 °C 1014.1 hPa SSE 9.7 km/h 9.7 km/h 59 % 0.0 mm 12.0 W/m2 BKN
21:00 27.7 °C 19.2 °C 1014.4 hPa SE 24.1 km/h 24.1 km/h 60 % 0.0 mm 9.0 W/m2 BKN
21:05 27.6 °C 19.1 °C 1014.1 hPa SE 14.8 km/h 14.8 km/h 60 % 0.0 mm 5.0 W/m2 BKN
21:10 27.5 °C 19.1 °C 1014.4 hPa SSE 20.4 km/h 20.4 km/h 60 % 0.0 mm 0.0 W/m2 OVC
21:15 27.4 °C 19.3 °C 1014.4 hPa SSE 12.9 km/h 12.9 km/h 61 % 0.0 mm 0.0 W/m2 OVC
21:20 27.3 °C 19.2 °C 1014.4 hPa SE 14.8 km/h 14.8 km/h 61 % 0.0 mm 0.0 W/m2 OVC
21:21 27.3 °C 19.1 °C 1014.4 hPa SE 14.8 km/h 14.8 km/h 61 % 0.0 mm 0.0 W/m2 CLR
21:26 27.2 °C 19.3 °C 1014.4 hPa SSE 18.5 km/h 18.5 km/h 62 % 0.0 mm 0.0 W/m2 CLR
21:31 27.0 °C 19.3 °C 1014.4 hPa SSE 16.7 km/h 16.7 km/h 63 % 0.0 mm 0.0 W/m2 CLR
21:36 26.9 °C 19.2 °C 1014.4 hPa SSE 14.8 km/h 14.8 km/h 63 % 0.0 mm 0.0 W/m2 CLR
21:41 26.8 °C 19.2 °C 1014.4 hPa SE 11.1 km/h 11.1 km/h 63 % 0.0 mm 0.0 W/m2 CLR
21:46 26.7 °C 19.3 °C 1014.4 hPa SE 18.5 km/h 18.5 km/h 64 % 0.0 mm 0.0 W/m2 CLR
21:51 26.6 °C 19.2 °C 1014.8 hPa SE 12.9 km/h 12.9 km/h 64 % 0.0 mm 0.0 W/m2 CLR
21:56 26.5 °C 19.1 °C 1014.8 hPa SSE 12.9 km/h 12.9 km/h 64 % 0.0 mm 0.0 W/m2 CLR
22:01 26.4 °C 19.3 °C 1014.8 hPa SE 9.3 km/h 9.3 km/h 65 % 0.0 mm 0.0 W/m2 CLR
22:06 26.3 °C 19.2 °C 1014.8 hPa SSE 14.8 km/h 14.8 km/h 65 % 0.0 mm 0.0 W/m2 CLR
22:11 26.3 °C 19.2 °C 1014.8 hPa SE 6.4 km/h 6.4 km/h 65 % 0.0 mm 0.0 W/m2 CLR
22:16 26.2 °C 19.1 °C 1015.1 hPa Calm     65 % 0.0 mm 0.0 W/m2 CLR
22:21 26.1 °C 19.3 °C 1015.1 hPa SSE 11.1 km/h 11.1 km/h 66 % 0.0 mm 0.0 W/m2 CLR
22:26 26.1 °C 19.2 °C 1015.1 hPa SE 7.4 km/h 7.4 km/h 66 % 0.0 mm 0.0 W/m2 CLR
22:31 26.1 °C 19.2 °C 1015.1 hPa Calm     66 % 0.0 mm 0.0 W/m2 CLR
22:36 26.0 °C 19.2 °C 1015.1 hPa SSE 7.4 km/h   66 % 0.0 mm 0.0 W/m2 CLR
22:41 25.9 °C 19.1 °C 1015.5 hPa Calm     66 % 0.0 mm 0.0 W/m2 CLR
22:46 25.9 °C 19.1 °C 1015.5 hPa Calm     66 % 0.0 mm 0.0 W/m2 CLR
22:51 25.9 °C 19.1 °C 1015.1 hPa SE 5.6 km/h   66 % 0.0 mm 0.0 W/m2 CLR
22:56 25.9 °C 19.1 °C 1015.5 hPa SSE 7.4 km/h 7.4 km/h 66 % 0.0 mm 0.0 W/m2 CLR
23:01 25.9 °C 19.1 °C 1015.5 hPa South 1.9 km/h 1.9 km/h 66 % 0.0 mm 0.0 W/m2 CLR
23:06 25.9 °C 19.1 °C 1015.5 hPa SE 8.0 km/h 8.0 km/h 66 % 0.0 mm 0.0 W/m2 CLR
23:11 25.8 °C 19.0 °C 1015.1 hPa Calm     66 % 0.0 mm 0.0 W/m2 CLR
23:21 25.7 °C 19.1 °C 1015.1 hPa Calm     67 % 0.0 mm 0.0 W/m2 CLR
23:26 25.6 °C 19.0 °C 1014.8 hPa SSE 9.3 km/h 9.3 km/h 67 % 0.0 mm 0.0 W/m2 CLR
23:31 25.6 °C 19.0 °C 1015.1 hPa SSE 9.3 km/h 9.3 km/h 67 % 0.0 mm 0.0 W/m2 CLR
23:36 25.6 °C 19.2 °C 1015.1 hPa SE 11.1 km/h 11.1 km/h 68 % 0.0 mm 0.0 W/m2 CLR
23:41 25.5 °C 19.2 °C 1015.1 hPa SE 7.4 km/h 7.4 km/h 68 % 0.0 mm 0.0 W/m2 CLR
23:46 25.5 °C 19.2 °C 1015.1 hPa Calm     68 % 0.0 mm 0.0 W/m2 CLR
23:51 25.5 °C 19.2 °C 1015.1 hPa Calm     68 % 0.0 mm 0.0 W/m2 CLR
23:56 25.5 °C 19.2 °C 1015.1 hPa SSE 6.4 km/h 6.4 km/h 68 % 0.0 mm 0.0 W/m2 CLR
Lo Temps de Massalio
Compliments of Weather Underground - 1.25 mb